createdAt,value
2022-09-04T00:01:57.878Z,6.40
2022-09-04T00:04:35.261Z,6.40
2022-09-04T00:07:13.956Z,6.60
2022-09-04T00:09:54.549Z,8.82
2022-09-04T00:12:29.530Z,7.60
2022-09-04T00:15:05.533Z,8.57
2022-09-04T00:17:40.064Z,7.77
2022-09-04T00:20:13.618Z,8.60
2022-09-04T00:22:52.429Z,8.70
2022-09-04T00:25:26.346Z,6.80
2022-09-04T00:28:01.649Z,7.57
2022-09-04T00:30:29.949Z,7.93
2022-09-04T00:33:04.416Z,8.00
2022-09-04T00:35:34.591Z,8.48
2022-09-04T00:38:05.276Z,8.77
2022-09-04T00:40:35.778Z,9.97
2022-09-04T00:43:27.587Z,8.50
2022-09-04T00:46:13.132Z,9.20
2022-09-04T00:49:31.267Z,8.40
2022-09-04T00:52:12.171Z,8.52
2022-09-04T00:54:53.526Z,8.68
2022-09-04T00:57:57.751Z,7.70
2022-09-04T01:00:27.913Z,7.78
2022-09-04T01:03:17.232Z,8.50
2022-09-04T01:06:09.123Z,8.80
2022-09-04T01:08:56.420Z,8.40
2022-09-04T01:11:37.377Z,8.20
2022-09-04T01:14:14.078Z,8.65
2022-09-04T01:16:47.953Z,8.90
2022-09-04T01:19:33.168Z,8.05
2022-09-04T01:22:22.853Z,8.90
2022-09-04T01:25:05.654Z,8.90
2022-09-04T01:27:45.538Z,8.55
2022-09-04T01:30:16.849Z,9.27
2022-09-04T01:32:54.482Z,8.57
2022-09-04T01:35:31.721Z,8.30
2022-09-04T01:38:07.553Z,7.77
2022-09-04T01:40:41.277Z,8.25
2022-09-04T01:43:13.016Z,8.07
2022-09-04T01:46:28.398Z,8.88
2022-09-04T01:49:04.724Z,8.30
2022-09-04T01:51:40.309Z,8.23
2022-09-04T01:54:32.271Z,8.23
2022-09-04T01:57:18.379Z,8.90
2022-09-04T02:00:02.378Z,7.95
2022-09-04T02:02:35.442Z,8.40
2022-09-04T02:05:12.849Z,9.73
2022-09-04T02:07:47.689Z,9.20
2022-09-04T02:10:28.553Z,9.18
2022-09-04T02:13:08.973Z,9.15
2022-09-04T02:15:45.254Z,9.60
2022-09-04T02:18:26.259Z,9.43
2022-09-04T02:20:59.620Z,8.30
2022-09-04T02:23:37.777Z,9.88
2022-09-04T02:26:14.219Z,9.23
2022-09-04T02:28:53.085Z,8.63
2022-09-04T02:31:31.260Z,10.38
2022-09-04T02:34:07.406Z,9.80
2022-09-04T02:36:42.921Z,10.00
2022-09-04T02:39:21.771Z,10.25
2022-09-04T02:41:58.428Z,10.90
2022-09-04T02:44:38.198Z,8.98
2022-09-04T02:47:18.378Z,9.88
2022-09-04T02:49:57.816Z,10.90
2022-09-04T02:52:51.617Z,11.32
2022-09-04T02:55:31.710Z,10.60
2022-09-04T02:58:14.867Z,10.40
2022-09-04T03:00:52.155Z,10.43
2022-09-04T03:03:28.649Z,10.32
2022-09-04T03:06:02.634Z,10.82
2022-09-04T03:08:36.513Z,10.25
2022-09-04T03:11:12.221Z,10.23
2022-09-04T03:13:46.424Z,10.70
2022-09-04T03:16:21.957Z,11.65
2022-09-04T03:19:08.658Z,11.80
2022-09-04T03:21:42.134Z,9.35
2022-09-04T03:24:18.373Z,9.75
2022-09-04T03:26:50.663Z,10.50
2022-09-04T03:29:27.945Z,11.65
2022-09-04T03:32:16.580Z,12.20
2022-09-04T03:34:56.215Z,12.13
2022-09-04T03:37:49.378Z,11.10
2022-09-04T03:40:34.474Z,13.10
2022-09-04T03:43:28.097Z,13.98
2022-09-04T03:46:03.932Z,13.70
2022-09-04T03:48:47.768Z,14.35
2022-09-04T03:51:24.340Z,14.90
2022-09-04T03:54:01.958Z,14.13
2022-09-04T03:57:06.369Z,13.77
2022-09-04T03:59:47.490Z,12.80
2022-09-04T04:02:24.647Z,14.00
2022-09-04T04:05:23.510Z,14.30
2022-09-04T04:08:05.030Z,15.13
2022-09-04T04:10:46.398Z,16.20
2022-09-04T04:13:33.305Z,14.63
2022-09-04T04:16:24.615Z,14.83
2022-09-04T04:19:12.056Z,14.03
2022-09-04T04:21:56.013Z,15.98
2022-09-04T04:24:39.960Z,13.90
2022-09-04T04:27:25.707Z,14.90
2022-09-04T04:30:06.212Z,15.37
2022-09-04T04:32:52.489Z,15.13
2022-09-04T04:35:31.045Z,15.70
2022-09-04T04:38:13.852Z,15.55
2022-09-04T04:41:06.929Z,15.60
2022-09-04T04:43:44.598Z,14.25
2022-09-04T04:46:19.334Z,15.00
2022-09-04T04:49:13.904Z,15.27
2022-09-04T04:51:58.174Z,14.60
2022-09-04T04:54:43.091Z,16.63
2022-09-04T04:57:25.556Z,15.63
2022-09-04T05:00:06.499Z,17.35
2022-09-04T05:02:42.262Z,18.17
2022-09-04T05:05:16.012Z,16.27
2022-09-04T05:07:52.217Z,16.98
2022-09-04T05:10:24.571Z,17.48
2022-09-04T05:13:01.206Z,16.50
2022-09-04T05:15:48.494Z,17.67
2022-09-04T05:18:32.516Z,18.05
2022-09-04T05:21:10.403Z,18.25
2022-09-04T05:23:45.346Z,16.65
2022-09-04T05:26:25.341Z,18.10
2022-09-04T05:29:02.514Z,17.02
2022-09-04T05:31:40.200Z,16.85
2022-09-04T05:34:13.908Z,17.75
2022-09-04T05:36:49.681Z,19.85
2022-09-04T05:39:29.100Z,16.70
2022-09-04T05:42:23.199Z,18.05
2022-09-04T05:44:59.767Z,19.00
2022-09-04T05:47:38.732Z,18.83
2022-09-04T05:50:22.021Z,20.15
2022-09-04T05:53:18.676Z,21.85
2022-09-04T05:56:10.564Z,19.08
2022-09-04T05:58:55.951Z,19.83
2022-09-04T06:01:53.566Z,18.42
2022-09-04T06:04:56.726Z,18.38
2022-09-04T06:07:31.439Z,17.95
2022-09-04T06:10:05.842Z,18.17
2022-09-04T06:12:51.923Z,19.58
2022-09-04T06:15:38.070Z,19.00
2022-09-04T06:18:34.366Z,19.70
2022-09-04T06:21:14.660Z,18.13
2022-09-04T06:24:00.588Z,20.00
2022-09-04T06:26:41.177Z,20.60
2022-09-04T06:29:26.445Z,19.85
2022-09-04T06:32:05.046Z,20.20
2022-09-04T06:34:52.844Z,19.30
2022-09-04T06:37:30.915Z,19.02
2022-09-04T06:40:16.637Z,21.00
2022-09-04T06:42:56.393Z,18.90
2022-09-04T06:45:36.399Z,20.40
2022-09-04T06:48:19.502Z,18.83
2022-09-04T06:50:58.320Z,19.23
2022-09-04T06:53:39.281Z,19.48
2022-09-04T06:56:21.137Z,20.88
2022-09-04T06:59:11.924Z,20.80
2022-09-04T07:01:52.435Z,20.63
2022-09-04T07:04:32.605Z,20.63
2022-09-04T07:07:11.669Z,20.08
2022-09-04T07:09:44.521Z,22.38
2022-09-04T07:12:34.416Z,20.83
2022-09-04T07:15:40.928Z,20.92
2022-09-04T07:18:18.520Z,19.95
2022-09-04T07:21:00.490Z,19.10
2022-09-04T07:23:38.510Z,18.20
2022-09-04T07:26:18.250Z,18.20
2022-09-04T07:29:09.709Z,18.83
2022-09-04T07:31:41.907Z,17.23
2022-09-04T07:34:16.053Z,16.10
2022-09-04T07:36:49.384Z,17.37
2022-09-04T07:39:24.437Z,16.40
2022-09-04T07:42:01.734Z,15.40
2022-09-04T07:44:40.640Z,15.30
2022-09-04T07:47:14.578Z,14.60
2022-09-04T07:49:53.856Z,13.50
2022-09-04T07:52:33.405Z,13.10
2022-09-04T07:55:26.303Z,12.90
2022-09-04T07:58:28.275Z,12.68
2022-09-04T08:01:10.194Z,12.52
2022-09-04T08:03:56.445Z,13.98
2022-09-04T08:06:30.507Z,18.80
2022-09-04T08:09:19.617Z,22.23
2022-09-04T08:12:10.601Z,23.30
2022-09-04T08:14:54.793Z,23.35
2022-09-04T08:17:53.014Z,23.90
2022-09-04T08:20:37.905Z,25.17
2022-09-04T08:23:24.473Z,25.35
2022-09-04T08:25:58.769Z,24.75
2022-09-04T08:28:40.928Z,25.02
2022-09-04T08:31:20.780Z,25.85
2022-09-04T08:34:07.609Z,27.10
2022-09-04T08:36:45.458Z,29.40
2022-09-04T08:39:21.211Z,29.57
2022-09-04T08:42:16.792Z,29.95
2022-09-04T08:45:22.188Z,30.48
2022-09-04T08:48:28.252Z,30.00
2022-09-04T08:51:38.439Z,30.70
2022-09-04T08:54:39.104Z,31.23
2022-09-04T08:57:39.091Z,30.15
2022-09-04T09:00:09.956Z,28.30
2022-09-04T09:03:29.574Z,32.28
2022-09-04T09:06:31.208Z,30.60
2022-09-04T09:09:51.373Z,28.38
2022-09-04T09:12:43.768Z,30.67
2022-09-04T09:15:50.815Z,31.88
2022-09-04T09:18:35.866Z,32.38
2022-09-04T09:21:10.094Z,28.67
2022-09-04T09:23:55.789Z,29.30
2022-09-04T09:26:29.499Z,28.17
2022-09-04T09:29:27.687Z,28.20
2022-09-04T09:32:32.321Z,28.15
2022-09-04T09:35:38.117Z,25.73
2022-09-04T09:38:46.531Z,26.50
2022-09-04T09:41:51.651Z,27.20
2022-09-04T09:44:46.418Z,24.10
2022-09-04T09:47:57.205Z,25.13
2022-09-04T09:51:09.865Z,25.45
2022-09-04T09:54:05.991Z,21.95
2022-09-04T09:56:55.631Z,21.98
2022-09-04T09:59:58.756Z,19.95
2022-09-04T10:03:09.676Z,19.95
2022-09-04T10:06:22.591Z,21.85
2022-09-04T10:09:37.638Z,18.35
2022-09-04T10:13:02.209Z,18.55
2022-09-04T10:15:55.216Z,18.75
2022-09-04T10:18:50.567Z,19.08
2022-09-04T10:22:00.394Z,16.17
2022-09-04T10:25:10.836Z,17.25
2022-09-04T10:28:15.637Z,15.80
2022-09-04T10:31:09.444Z,15.97
2022-09-04T10:33:57.054Z,17.52
2022-09-04T10:36:32.374Z,16.90
2022-09-04T10:39:35.309Z,17.60
2022-09-04T10:42:12.276Z,12.90
2022-09-04T10:44:59.065Z,13.60
2022-09-04T10:47:46.325Z,17.40
2022-09-04T10:50:41.189Z,14.68
2022-09-04T10:53:36.691Z,16.65
2022-09-04T10:56:16.249Z,13.23
2022-09-04T10:59:08.523Z,16.10
2022-09-04T11:02:03.065Z,10.80
2022-09-04T11:05:10.218Z,9.65
2022-09-04T11:08:09.284Z,12.00
2022-09-04T11:10:59.133Z,12.90
2022-09-04T11:14:19.502Z,13.57
2022-09-04T11:17:14.361Z,14.32
2022-09-04T11:20:31.464Z,11.98
2022-09-04T11:23:32.747Z,9.50
2022-09-04T11:26:36.263Z,10.30
2022-09-04T11:29:41.312Z,11.50
2022-09-04T11:32:24.449Z,9.30
2022-09-04T11:35:28.796Z,8.50
2022-09-04T11:38:29.341Z,6.00
2022-09-04T11:41:32.128Z,6.10
2022-09-04T11:44:18.449Z,7.80
2022-09-04T11:47:01.662Z,7.75
2022-09-04T11:50:05.800Z,5.93
2022-09-04T11:52:53.501Z,7.63
2022-09-04T11:55:33.315Z,7.53
2022-09-04T11:58:28.904Z,6.90
2022-09-04T12:01:10.176Z,5.38
2022-09-04T12:04:07.345Z,7.28
2022-09-04T12:06:51.401Z,8.98
2022-09-04T12:09:51.393Z,6.50
2022-09-04T12:12:31.508Z,7.28
2022-09-04T12:15:24.600Z,5.50
2022-09-04T12:18:21.300Z,5.40
2022-09-04T12:21:06.598Z,5.93
2022-09-04T12:24:11.704Z,8.20
2022-09-04T12:27:00.138Z,9.30
2022-09-04T12:30:00.718Z,8.75
2022-09-04T12:33:18.367Z,7.90
2022-09-04T12:36:25.822Z,7.95
2022-09-04T12:39:22.286Z,7.70
2022-09-04T12:41:59.139Z,6.00
2022-09-04T12:44:40.040Z,8.90
2022-09-04T12:47:20.304Z,5.87
2022-09-04T12:50:04.862Z,7.07
2022-09-04T12:52:51.919Z,5.57
2022-09-04T12:55:35.970Z,5.30
2022-09-04T12:58:14.238Z,4.63
2022-09-04T13:00:55.343Z,5.72
2022-09-04T13:03:37.487Z,5.20
2022-09-04T13:06:25.752Z,5.50
2022-09-04T13:09:07.039Z,6.38
2022-09-04T13:11:49.231Z,5.10
2022-09-04T13:14:44.635Z,5.10
2022-09-04T13:17:21.260Z,4.97
2022-09-04T13:19:55.292Z,6.95
2022-09-04T13:22:34.369Z,6.47
2022-09-04T13:25:11.936Z,6.25
2022-09-04T13:27:52.625Z,5.50
2022-09-04T13:30:25.413Z,4.47
2022-09-04T13:33:39.790Z,3.83
2022-09-04T13:36:19.897Z,3.80
2022-09-04T13:39:23.286Z,4.00
2022-09-04T13:42:06.382Z,4.65
2022-09-04T13:44:55.388Z,4.30
2022-09-04T13:47:32.377Z,4.35
2022-09-04T13:50:09.854Z,4.32
2022-09-04T13:52:43.432Z,5.57
2022-09-04T13:55:17.892Z,5.75
2022-09-04T13:57:57.385Z,6.28
2022-09-04T14:00:28.937Z,5.32
2022-09-04T14:03:03.697Z,5.10
2022-09-04T14:05:34.092Z,5.70
2022-09-04T14:08:05.869Z,5.20
2022-09-04T14:10:53.113Z,5.90
2022-09-04T14:13:37.682Z,5.50
2022-09-04T14:16:08.866Z,4.80
2022-09-04T14:19:17.643Z,4.20
2022-09-04T14:22:02.361Z,4.10
2022-09-04T14:24:40.111Z,4.30
2022-09-04T14:27:14.915Z,4.53
2022-09-04T14:29:56.509Z,4.32
2022-09-04T14:32:41.071Z,4.20
2022-09-04T14:35:36.317Z,3.81
2022-09-04T14:38:29.225Z,4.20
2022-09-04T14:41:08.517Z,3.80
2022-09-04T14:43:47.181Z,3.63
2022-09-04T14:46:28.586Z,3.50
2022-09-04T14:49:06.126Z,6.07
2022-09-04T14:51:37.101Z,3.80
2022-09-04T14:54:06.803Z,3.63
2022-09-04T14:56:42.365Z,3.00
2022-09-04T14:59:20.277Z,3.00
2022-09-04T15:02:07.764Z,3.75
2022-09-04T15:04:41.944Z,5.18
2022-09-04T15:07:25.059Z,4.60
2022-09-04T15:09:54.694Z,3.00
2022-09-04T15:12:26.238Z,3.50
2022-09-04T15:15:04.124Z,3.30
2022-09-04T15:17:32.884Z,3.72
2022-09-04T15:20:07.501Z,3.53
2022-09-04T15:22:43.310Z,3.97
2022-09-04T15:25:58.187Z,3.50
2022-09-04T15:28:34.494Z,3.50
2022-09-04T15:31:15.810Z,2.80
2022-09-04T15:33:47.457Z,2.70
2022-09-04T15:36:20.158Z,4.00
2022-09-04T15:38:51.714Z,3.00
2022-09-04T15:41:27.759Z,2.70
2022-09-04T15:44:02.318Z,2.75
2022-09-04T15:46:43.730Z,2.80
2022-09-04T15:49:25.447Z,2.60
2022-09-04T15:51:58.944Z,2.70
2022-09-04T15:54:36.410Z,2.50
2022-09-04T15:57:13.803Z,2.50
2022-09-04T15:59:49.779Z,3.03
2022-09-04T16:02:36.421Z,2.50
2022-09-04T16:05:15.012Z,2.70
2022-09-04T16:08:03.764Z,2.77
2022-09-04T16:10:45.473Z,2.50
2022-09-04T16:13:44.181Z,2.50
2022-09-04T16:16:17.694Z,2.45
2022-09-04T16:19:08.085Z,2.70
2022-09-04T16:21:49.228Z,2.30
2022-09-04T16:24:22.312Z,2.50
2022-09-04T16:26:54.613Z,2.58
2022-09-04T16:29:35.880Z,2.90
2022-09-04T16:32:09.602Z,2.30
2022-09-04T16:34:46.513Z,2.40
2022-09-04T16:37:18.553Z,2.10
2022-09-04T16:39:57.335Z,2.50
2022-09-04T16:42:29.584Z,1.90
2022-09-04T16:45:05.240Z,2.50
2022-09-04T16:47:39.144Z,1.80
2022-09-04T16:50:16.088Z,1.30
2022-09-04T16:53:12.623Z,1.20
2022-09-04T16:55:50.115Z,1.30
2022-09-04T16:58:33.919Z,1.10
2022-09-04T17:01:14.125Z,1.20
2022-09-04T17:03:51.404Z,1.20
2022-09-04T17:06:28.423Z,1.27
2022-09-04T17:09:05.464Z,1.30
2022-09-04T17:11:42.733Z,1.20
2022-09-04T17:14:17.302Z,1.20
2022-09-04T17:16:53.702Z,1.38
2022-09-04T17:19:22.901Z,1.30
2022-09-04T17:27:28.024Z,1.33
2022-09-04T17:29:09.934Z,1.30
2022-09-04T17:29:14.174Z,1.13
2022-09-04T17:31:45.577Z,1.30
2022-09-04T17:40:34.603Z,1.20
2022-09-04T17:40:49.686Z,1.27
2022-09-04T17:40:55.608Z,1.33
2022-09-04T17:43:21.830Z,1.45
2022-09-04T17:46:02.219Z,1.17
2022-09-04T17:48:33.454Z,1.40
2022-09-04T17:51:03.914Z,1.30
2022-09-04T17:53:35.004Z,1.40
2022-09-04T17:56:09.221Z,1.30
2022-09-04T17:58:43.229Z,1.52
2022-09-04T18:01:19.849Z,1.10
2022-09-04T18:04:20.578Z,1.50
2022-09-04T18:06:55.894Z,1.40
2022-09-04T18:09:30.056Z,1.55
2022-09-04T18:12:11.103Z,1.40
2022-09-04T18:14:45.220Z,1.20
2022-09-04T18:17:23.268Z,1.40
2022-09-04T18:19:57.360Z,1.40
2022-09-04T18:22:32.113Z,1.83
2022-09-04T18:25:17.124Z,1.23
2022-09-04T18:28:11.991Z,1.40
2022-09-04T18:37:05.600Z,1.50
2022-09-04T18:37:18.388Z,1.60
2022-09-04T18:37:22.449Z,1.30
2022-09-04T18:39:51.074Z,1.30
2022-09-04T18:49:15.943Z,1.50
2022-09-04T18:50:43.675Z,1.63
2022-09-04T18:50:52.093Z,1.63
2022-09-04T18:51:21.846Z,1.80
2022-09-04T18:53:54.210Z,2.22
2022-09-04T18:56:27.430Z,1.92
2022-09-04T18:59:02.264Z,1.80
2022-09-04T19:01:39.562Z,1.90
2022-09-04T19:04:33.996Z,2.20
2022-09-04T19:07:07.742Z,2.10
2022-09-04T19:09:55.517Z,2.40
2022-09-04T19:12:35.759Z,2.00
2022-09-04T19:15:36.590Z,2.10
2022-09-04T19:18:14.277Z,2.50
2022-09-04T19:20:48.188Z,2.20
2022-09-04T19:23:25.672Z,1.90
2022-09-04T19:25:56.064Z,1.80
2022-09-04T19:28:29.399Z,1.80
2022-09-04T19:31:02.762Z,1.90
2022-09-04T19:33:39.018Z,1.90
2022-09-04T19:36:12.820Z,1.90
2022-09-04T19:45:53.568Z,2.20
2022-09-04T19:46:05.761Z,1.98
2022-09-04T19:46:18.623Z,2.00
2022-09-04T19:47:37.213Z,1.90
2022-09-04T19:53:19.676Z,1.63
2022-09-04T19:53:37.748Z,1.60
2022-09-04T19:56:13.849Z,2.00
2022-09-04T19:58:44.472Z,1.90
2022-09-04T20:01:16.423Z,1.80
2022-09-04T20:03:49.729Z,1.60
2022-09-04T20:06:25.468Z,1.92
2022-09-04T20:09:00.525Z,1.95
2022-09-04T20:11:36.520Z,2.35
2022-09-04T20:14:14.735Z,2.03
2022-09-04T20:16:57.622Z,1.70
2022-09-04T20:19:32.863Z,2.00
2022-09-04T20:22:05.517Z,1.80
2022-09-04T20:24:39.741Z,2.30
2022-09-04T20:27:15.930Z,2.08
2022-09-04T20:29:54.603Z,2.33
2022-09-04T20:32:26.694Z,1.98
2022-09-04T20:35:13.740Z,1.83
2022-09-04T20:37:48.934Z,2.00
2022-09-04T20:40:31.206Z,1.90
2022-09-04T20:43:18.704Z,1.80
2022-09-04T20:49:13.979Z,2.00
2022-09-04T20:52:54.573Z,2.17
2022-09-04T20:53:05.454Z,2.10
2022-09-04T20:54:42.701Z,1.80
2022-09-04T21:00:51.572Z,2.00
2022-09-04T21:03:22.836Z,2.10
2022-09-04T21:03:35.144Z,2.60
2022-09-04T21:06:07.551Z,1.90
2022-09-04T21:08:44.621Z,1.90
2022-09-04T21:11:39.185Z,2.20
2022-09-04T21:14:10.666Z,2.10
2022-09-04T21:16:55.527Z,2.20
2022-09-04T21:19:41.578Z,2.30
2022-09-04T21:22:32.626Z,1.90
2022-09-04T21:25:18.545Z,2.00
2022-09-04T21:28:20.185Z,2.40
2022-09-04T21:31:00.279Z,2.00
2022-09-04T21:33:36.950Z,2.00
2022-09-04T21:36:26.259Z,2.40
2022-09-04T21:39:35.052Z,2.00
2022-09-04T21:42:25.273Z,2.30
2022-09-04T21:45:24.278Z,2.17
2022-09-04T21:48:17.957Z,2.40
2022-09-04T21:51:01.598Z,2.42
2022-09-04T21:53:54.559Z,2.25
2022-09-04T22:02:31.791Z,2.30
2022-09-04T22:02:41.700Z,2.40
2022-09-04T22:03:21.440Z,2.25
2022-09-04T22:06:03.773Z,2.80
2022-09-04T22:13:26.350Z,2.10
2022-09-04T22:13:46.217Z,2.30
2022-09-04T22:14:47.413Z,2.78
2022-09-04T22:17:41.456Z,2.90
2022-09-04T22:20:48.802Z,2.60
2022-09-04T22:23:49.375Z,2.80
2022-09-04T22:26:57.569Z,3.00
2022-09-04T22:29:45.377Z,3.15
2022-09-04T22:32:48.729Z,2.95
2022-09-04T22:35:37.262Z,3.10
2022-09-04T22:38:29.956Z,3.35
2022-09-04T22:41:14.789Z,2.80
2022-09-04T22:43:47.985Z,2.88
2022-09-04T22:46:39.700Z,2.97
2022-09-04T22:49:30.977Z,3.15
2022-09-04T22:52:25.558Z,3.20
2022-09-04T22:55:23.320Z,3.30
2022-09-04T22:58:15.615Z,3.00
2022-09-04T23:01:07.662Z,3.00
2022-09-04T23:03:47.562Z,2.60
2022-09-04T23:11:46.666Z,3.30
2022-09-04T23:13:54.298Z,3.10
2022-09-04T23:14:05.408Z,3.38
2022-09-04T23:16:27.730Z,2.97
2022-09-04T23:23:30.616Z,2.80
2022-09-04T23:26:35.820Z,3.55
2022-09-04T23:26:58.500Z,2.85
2022-09-04T23:28:36.889Z,3.45
2022-09-04T23:31:29.419Z,2.80
2022-09-04T23:34:30.026Z,3.35
2022-09-04T23:37:23.971Z,3.30
2022-09-04T23:40:19.995Z,3.10
2022-09-04T23:43:14.847Z,2.97
2022-09-04T23:46:08.739Z,2.85
2022-09-04T23:48:55.187Z,3.90
2022-09-04T23:51:32.569Z,3.35
2022-09-04T23:54:25.942Z,3.17
2022-09-04T23:57:00.743Z,3.60
2022-09-04T23:59:46.833Z,3.47
